Time;durP1;ratioP1;P1;durP2;ratioP2;P2;SDS_P1;SDS_P2;PMS_P1;PMS_P2;Temp;Humidity;BMP_temperature;BMP_pressure;BME280_temperature;BME280_humidity;BME280_pressure;Samples;Min_cycle;Max_cycle;Signal;HPM_P1;HPM_P2
2022/10/24 00:00:51;;;;;;;20.83;8.93;;;8.20;99.90;;;;;;4353631;28;658590;-67
2022/10/24 00:03:39;;;;;;;13.90;8.43;;;8.30;99.90;;;;;;4372082;28;659373;-68
2022/10/24 00:06:26;;;;;;;16.80;7.63;;;8.40;99.90;;;;;;4353295;28;658978;-68
2022/10/24 00:09:14;;;;;;;18.57;8.77;;;8.40;99.90;;;;;;4370889;28;659905;-68
2022/10/24 00:12:02;;;;;;;16.83;7.33;;;8.40;99.90;;;;;;4353043;28;659394;-68
2022/10/24 00:14:49;;;;;;;14.60;7.33;;;8.40;99.90;;;;;;4371028;28;658557;-68
2022/10/24 00:17:36;;;;;;;16.27;7.13;;;8.40;99.90;;;;;;4353261;28;658663;-68
2022/10/24 00:20:23;;;;;;;12.82;6.55;;;8.40;99.90;;;;;;4368510;28;659523;-68
2022/10/24 00:23:12;;;;;;;18.27;7.90;;;8.40;99.90;;;;;;4350408;28;660252;-68
2022/10/24 00:26:02;;;;;;;14.97;7.87;;;8.50;99.90;;;;;;4371678;28;658520;-68
2022/10/24 00:28:50;;;;;;;16.60;7.83;;;8.60;99.90;;;;;;4370489;28;659016;-68
2022/10/24 00:31:37;;;;;;;17.03;8.10;;;8.40;99.90;;;;;;4374999;28;659436;-68
2022/10/24 00:34:24;;;;;;;21.47;10.27;;;8.30;99.90;;;;;;4374396;28;658967;-68
2022/10/24 00:37:12;;;;;;;13.27;7.77;;;8.40;99.90;;;;;;4348950;28;660940;-68
2022/10/24 00:39:59;;;;;;;19.33;8.67;;;8.50;99.90;;;;;;4376459;28;658172;-68
2022/10/24 00:42:48;;;;;;;18.37;8.50;;;8.50;99.90;;;;;;4338277;28;659224;-68
2022/10/24 00:45:39;;;;;;;13.30;8.23;;;8.50;99.90;;;;;;4350919;28;658665;-68
2022/10/24 00:48:28;;;;;;;14.00;7.33;;;8.60;99.90;;;;;;4350791;28;659044;-68
2022/10/24 00:51:20;;;;;;;14.93;7.43;;;8.60;99.90;;;;;;4364626;28;659025;-68
2022/10/24 00:54:09;;;;;;;14.43;7.97;;;8.70;99.90;;;;;;4353809;28;659250;-68
2022/10/24 00:57:00;;;;;;;14.13;6.73;;;8.70;99.90;;;;;;4351653;28;659873;-68
2022/10/24 00:59:51;;;;;;;13.73;7.00;;;8.70;99.90;;;;;;4347438;28;659697;-68
2022/10/24 01:02:38;;;;;;;18.95;6.70;;;8.70;99.90;;;;;;4352606;28;659805;-68
2022/10/24 01:05:27;;;;;;;12.77;6.63;;;8.70;99.90;;;;;;4352262;28;658252;-68
2022/10/24 01:08:17;;;;;;;10.03;6.33;;;8.70;99.90;;;;;;4373071;28;659456;-68
2022/10/24 01:11:10;;;;;;;11.47;6.60;;;8.70;99.90;;;;;;4350866;28;658748;-68
2022/10/24 01:14:00;;;;;;;14.47;6.93;;;8.70;99.90;;;;;;4333355;28;660094;-68
2022/10/24 01:16:50;;;;;;;16.50;6.43;;;8.70;99.90;;;;;;4354223;28;659494;-68
2022/10/24 01:20:13;;;;;;;11.93;6.13;;;8.70;99.90;;;;;;4353571;28;659370;-68
2022/10/24 01:23:07;;;;;;;16.80;6.30;;;8.80;99.90;;;;;;4336446;28;658699;-68
2022/10/24 01:26:01;;;;;;;14.70;6.30;;;8.80;99.90;;;;;;4349680;28;658619;-68
2022/10/24 01:28:50;;;;;;;14.63;6.13;;;8.80;99.90;;;;;;4347406;28;658959;-68
2022/10/24 01:31:41;;;;;;;16.97;6.37;;;8.80;99.90;;;;;;4348985;28;660195;-68
2022/10/24 01:34:30;;;;;;;16.27;5.70;;;8.80;99.90;;;;;;4347016;28;659087;-68
2022/10/24 01:37:19;;;;;;;13.90;5.73;;;8.80;99.90;;;;;;4345165;28;660010;-68
2022/10/24 01:40:09;;;;;;;8.10;5.35;;;8.80;99.90;;;;;;4350013;28;658815;-68
2022/10/24 01:42:58;;;;;;;12.67;5.50;;;8.80;99.90;;;;;;4354712;28;657438;-68
2022/10/24 01:45:47;;;;;;;13.07;5.40;;;8.70;99.90;;;;;;4354141;28;659101;-68
2022/10/24 01:48:38;;;;;;;9.73;5.27;;;8.70;99.90;;;;;;4366426;28;658544;-68
2022/10/24 01:51:26;;;;;;;15.53;6.43;;;8.70;99.90;;;;;;4331672;28;657661;-68
2022/10/24 01:54:13;;;;;;;13.27;5.63;;;8.70;99.90;;;;;;4368958;28;658782;-68
2022/10/24 01:57:01;;;;;;;12.63;6.30;;;8.70;99.90;;;;;;4354961;28;658793;-68
2022/10/24 01:59:48;;;;;;;10.70;5.40;;;8.70;99.90;;;;;;4373687;28;659586;-68
2022/10/24 02:02:38;;;;;;;13.27;6.40;;;8.60;99.90;;;;;;4352664;28;658610;-68
2022/10/24 02:05:28;;;;;;;14.87;5.83;;;8.60;99.90;;;;;;4357081;28;658859;-68
2022/10/24 02:08:18;;;;;;;7.80;5.27;;;8.60;99.90;;;;;;4351966;28;658327;-68
2022/10/24 02:11:06;;;;;;;13.30;5.57;;;8.60;99.90;;;;;;4357296;28;657541;-68
2022/10/24 02:13:55;;;;;;;14.30;5.53;;;8.50;99.90;;;;;;4373314;28;659689;-68
2022/10/24 02:16:43;;;;;;;8.17;5.60;;;8.40;99.90;;;;;;4349050;28;659267;-68
2022/10/24 02:19:30;;;;;;;21.05;12.82;;;8.40;99.90;;;;;;4356748;28;657816;-68
2022/10/24 02:22:24;;;;;;;15.47;7.37;;;8.40;99.90;;;;;;4374994;28;660275;-68
2022/10/24 02:25:12;;;;;;;9.63;5.67;;;8.50;99.90;;;;;;4332232;28;658747;-68
2022/10/24 02:28:03;;;;;;;10.20;6.30;;;8.40;99.90;;;;;;4374746;28;657069;-68
2022/10/24 02:30:52;;;;;;;13.53;5.80;;;8.40;99.90;;;;;;4359340;28;658405;-68
2022/10/24 02:33:39;;;;;;;17.77;6.13;;;8.40;99.90;;;;;;4369843;28;659499;-68
2022/10/24 02:36:29;;;;;;;10.03;5.80;;;8.40;99.90;;;;;;4349939;28;658741;-68
2022/10/24 02:39:17;;;;;;;13.33;6.00;;;8.40;99.90;;;;;;4354824;28;659262;-68
2022/10/24 02:42:05;;;;;;;10.97;6.13;;;8.40;99.90;;;;;;4372145;28;658606;-68
2022/10/24 02:44:52;;;;;;;10.00;6.43;;;8.40;99.90;;;;;;4376939;28;659207;-68
2022/10/24 02:47:40;;;;;;;14.60;8.27;;;8.30;99.90;;;;;;4368946;28;659872;-68
2022/10/24 02:50:27;;;;;;;13.93;6.97;;;8.30;99.90;;;;;;4346255;28;659052;-68
2022/10/24 02:53:15;;;;;;;17.17;6.40;;;8.30;99.90;;;;;;4368288;28;658997;-68
2022/10/24 02:56:03;;;;;;;9.83;6.23;;;8.30;99.90;;;;;;4350229;28;659428;-68
2022/10/24 02:58:50;;;;;;;11.27;6.27;;;8.30;99.90;;;;;;4354449;28;658230;-68
2022/10/24 03:01:37;;;;;;;14.27;5.50;;;8.30;99.90;;;;;;4371281;28;659971;-68
2022/10/24 03:04:25;;;;;;;10.87;6.97;;;8.30;99.90;;;;;;4370535;28;658512;-68
2022/10/24 03:07:12;;;;;;;11.93;6.47;;;8.30;99.90;;;;;;4376157;28;659619;-68
2022/10/24 03:09:59;;;;;;;11.77;5.37;;;8.30;99.90;;;;;;4370831;28;659394;-68
2022/10/24 03:12:48;;;;;;;11.77;5.43;;;8.40;99.90;;;;;;4350986;28;658316;-68
2022/10/24 03:15:35;;;;;;;13.33;5.87;;;8.40;99.90;;;;;;4350603;28;658774;-68
2022/10/24 03:18:22;;;;;;;9.90;6.00;;;8.40;99.90;;;;;;4371993;28;659397;-68
2022/10/24 03:21:09;;;;;;;12.53;5.93;;;8.40;99.90;;;;;;4370535;28;657516;-68
2022/10/24 03:23:57;;;;;;;9.40;5.87;;;8.50;99.90;;;;;;4350092;28;658829;-68
2022/10/24 03:26:44;;;;;;;15.57;6.67;;;8.40;99.90;;;;;;4373788;28;657811;-68
2022/10/24 03:29:32;;;;;;;11.57;6.87;;;8.40;99.90;;;;;;4350162;28;658790;-68
2022/10/24 03:32:19;;;;;;;13.30;7.57;;;8.50;99.90;;;;;;4367365;28;658574;-68
2022/10/24 03:35:07;;;;;;;15.30;7.80;;;8.50;99.90;;;;;;4347418;28;659590;-68
2022/10/24 03:37:54;;;;;;;11.37;5.80;;;8.50;99.90;;;;;;4367611;28;659052;-68
2022/10/24 03:40:42;;;;;;;13.40;5.90;;;8.50;99.90;;;;;;4351513;28;659060;-68
2022/10/24 03:43:29;;;;;;;17.80;6.03;;;8.60;99.90;;;;;;4369626;28;659128;-68
2022/10/24 03:46:17;;;;;;;12.57;5.50;;;8.60;99.90;;;;;;4345694;28;658554;-68
2022/10/24 03:49:04;;;;;;;9.87;5.17;;;8.60;99.90;;;;;;4372630;28;658953;-68
2022/10/24 03:51:52;;;;;;;11.43;5.80;;;8.60;99.90;;;;;;4354183;28;658752;-68
2022/10/24 03:54:39;;;;;;;17.47;5.40;;;8.60;99.90;;;;;;4369400;28;658674;-68
2022/10/24 03:57:26;;;;;;;7.87;4.53;;;8.70;99.90;;;;;;4345134;28;658721;-68
2022/10/24 04:00:13;;;;;;;13.40;5.47;;;8.80;99.90;;;;;;4366271;28;657729;-68
2022/10/24 04:03:02;;;;;;;9.83;6.47;;;8.80;99.90;;;;;;4351065;28;658279;-69
2022/10/24 04:05:49;;;;;;;11.30;6.03;;;8.90;99.90;;;;;;4369359;28;658249;-68
2022/10/24 04:08:37;;;;;;;10.63;6.87;;;8.90;99.90;;;;;;4349622;28;658841;-68
2022/10/24 04:11:24;;;;;;;15.57;8.20;;;8.80;99.90;;;;;;4367270;28;659013;-68
2022/10/24 04:14:11;;;;;;;10.90;6.77;;;8.80;99.90;;;;;;4350510;28;659273;-68
2022/10/24 04:16:58;;;;;;;15.50;5.90;;;8.80;99.90;;;;;;4368614;28;659517;-68
2022/10/24 04:19:47;;;;;;;10.63;6.43;;;8.80;99.90;;;;;;4343634;28;658204;-69
2022/10/24 04:22:34;;;;;;;8.53;5.57;;;8.90;99.90;;;;;;4360439;28;658747;-68
2022/10/24 04:25:21;;;;;;;10.48;6.10;;;8.90;99.90;;;;;;4345199;28;657408;-68
2022/10/24 04:28:08;;;;;;;12.83;6.17;;;8.90;99.90;;;;;;4368655;28;659555;-69
2022/10/24 04:30:55;;;;;;;17.23;5.50;;;8.80;99.90;;;;;;4347891;28;658521;-68
2022/10/24 04:33:43;;;;;;;11.47;5.30;;;8.80;99.90;;;;;;4365977;28;659831;-69
2022/10/24 04:36:31;;;;;;;9.30;5.97;;;8.70;99.90;;;;;;4361423;28;658819;-68
2022/10/24 04:39:19;;;;;;;16.43;5.97;;;8.80;99.90;;;;;;4366744;28;657848;-68
2022/10/24 04:42:06;;;;;;;10.67;7.03;;;8.80;99.90;;;;;;4345319;28;658265;-68
2022/10/24 04:44:53;;;;;;;13.50;8.10;;;8.80;99.90;;;;;;4367551;28;659447;-68
2022/10/24 04:47:41;;;;;;;11.73;6.67;;;8.80;99.90;;;;;;4345106;28;658463;-68
2022/10/24 04:50:28;;;;;;;14.77;6.90;;;8.80;99.90;;;;;;4371065;28;659219;-68
2022/10/24 04:53:17;;;;;;;16.33;6.90;;;8.80;99.90;;;;;;4351878;28;658642;-68
2022/10/24 04:56:04;;;;;;;12.10;7.17;;;8.80;99.90;;;;;;4361857;28;659386;-68
2022/10/24 04:58:51;;;;;;;13.93;7.53;;;8.80;99.90;;;;;;4344834;28;659202;-68
2022/10/24 05:01:38;;;;;;;13.50;8.53;;;8.90;99.90;;;;;;4363928;28;658774;-69
2022/10/24 05:04:26;;;;;;;14.80;7.73;;;8.90;99.90;;;;;;4350379;28;658558;-68
2022/10/24 05:07:13;;;;;;;11.53;6.97;;;9.00;99.90;;;;;;4365570;28;659771;-68
2022/10/24 05:10:02;;;;;;;14.23;7.53;;;8.90;99.90;;;;;;4349565;28;659785;-68
2022/10/24 05:12:49;;;;;;;14.27;7.77;;;8.90;99.90;;;;;;4366039;28;659220;-69
2022/10/24 05:15:36;;;;;;;20.15;10.57;;;8.90;99.90;;;;;;4343346;28;658955;-68
2022/10/24 05:18:23;;;;;;;15.53;9.20;;;8.90;99.90;;;;;;4369216;28;661222;-68
2022/10/24 05:21:10;;;;;;;16.37;9.47;;;9.00;99.90;;;;;;4350626;28;658218;-68
2022/10/24 05:23:58;;;;;;;16.07;9.57;;;9.00;99.90;;;;;;4366850;28;660501;-69
2022/10/24 05:26:46;;;;;;;19.10;11.10;;;8.90;99.90;;;;;;4361622;28;658566;-69
2022/10/24 05:29:34;;;;;;;24.37;10.07;;;9.00;99.90;;;;;;4371228;28;660290;-68
2022/10/24 05:32:21;;;;;;;27.23;14.40;;;9.10;99.90;;;;;;4351837;28;659581;-69
2022/10/24 05:35:09;;;;;;;29.90;14.37;;;9.10;99.90;;;;;;4368511;28;661093;-69
2022/10/24 05:37:56;;;;;;;23.37;12.27;;;9.20;99.90;;;;;;4350768;28;661554;-68
2022/10/24 05:40:46;;;;;;;23.03;13.23;;;9.20;99.90;;;;;;4367006;28;661315;-69
2022/10/24 05:43:35;;;;;;;30.13;15.02;;;9.30;99.90;;;;;;4345331;28;661435;-69
2022/10/24 05:46:22;;;;;;;33.17;17.50;;;9.40;99.90;;;;;;4345665;28;660501;-68
2022/10/24 05:49:09;;;;;;;30.30;17.43;;;9.50;99.90;;;;;;4365889;28;660347;-69
2022/10/24 05:51:56;;;;;;;30.70;17.73;;;9.50;99.90;;;;;;4353296;28;660004;-69
2022/10/24 05:54:43;;;;;;;29.37;15.30;;;9.50;99.90;;;;;;4370686;28;660793;-69
2022/10/24 05:57:30;;;;;;;35.67;18.50;;;9.60;99.90;;;;;;4350804;28;660163;-69
2022/10/24 06:00:19;;;;;;;39.07;19.67;;;9.90;99.90;;;;;;4374142;28;660407;-69
2022/10/24 06:03:06;;;;;;;38.50;22.03;;;9.90;99.90;;;;;;4354555;28;659532;-69
2022/10/24 06:05:53;;;;;;;42.40;22.67;;;10.20;99.90;;;;;;4375977;28;661000;-69
2022/10/24 06:08:41;;;;;;;43.10;22.23;;;10.30;99.90;;;;;;4351144;28;660887;-69
2022/10/24 06:11:28;;;;;;;44.57;23.67;;;10.30;99.90;;;;;;4375873;28;660967;-69
2022/10/24 06:14:15;;;;;;;51.05;23.95;;;10.40;99.90;;;;;;4356431;28;660870;-69
2022/10/24 06:17:05;;;;;;;45.93;23.30;;;10.30;99.90;;;;;;4370222;28;662117;-69
2022/10/24 06:19:52;;;;;;;48.67;26.43;;;10.40;99.90;;;;;;4341857;28;662302;-69
2022/10/24 06:22:39;;;;;;;49.67;27.90;;;10.60;99.90;;;;;;4368238;28;661069;-69
2022/10/24 06:25:26;;;;;;;59.87;26.93;;;10.60;99.90;;;;;;4347423;28;660980;-68
2022/10/24 06:28:14;;;;;;;54.70;28.73;;;10.60;99.90;;;;;;4375034;28;661370;-69
2022/10/24 06:31:02;;;;;;;56.73;28.60;;;10.60;99.90;;;;;;4348774;28;661026;-69
2022/10/24 06:33:52;;;;;;;55.57;29.30;;;10.70;99.90;;;;;;4372594;28;660253;-69
2022/10/24 06:36:40;;;;;;;62.90;34.63;;;10.80;99.90;;;;;;4337831;28;660275;-69
2022/10/24 06:39:27;;;;;;;70.20;41.03;;;10.80;99.90;;;;;;4367166;28;661834;-69
2022/10/24 06:42:14;;;;;;;84.87;47.80;;;11.00;99.90;;;;;;4371371;28;661507;-69
2022/10/24 06:45:02;;;;;;;84.87;48.73;;;11.00;99.90;;;;;;4349192;28;660628;-69
2022/10/24 06:47:49;;;;;;;85.90;50.20;;;11.10;99.90;;;;;;4363136;28;660951;-69
2022/10/24 06:50:39;;;;;;;75.57;44.87;;;11.10;99.90;;;;;;4347847;28;661152;-69
2022/10/24 06:53:26;;;;;;;82.00;46.37;;;11.20;99.90;;;;;;4343489;28;660797;-69
2022/10/24 06:56:13;;;;;;;88.23;51.80;;;11.20;99.90;;;;;;4368570;28;661618;-69
2022/10/24 06:59:00;;;;;;;85.33;51.47;;;11.20;99.90;;;;;;4352802;28;661117;-69
2022/10/24 07:01:48;;;;;;;81.10;47.90;;;11.20;99.90;;;;;;4364384;28;662321;-69
2022/10/24 07:04:35;;;;;;;81.60;47.77;;;11.20;99.90;;;;;;4364560;28;660870;-68
2022/10/24 07:07:24;;;;;;;73.60;43.10;;;11.20;99.90;;;;;;4372584;28;660961;-68
2022/10/24 07:10:11;;;;;;;73.47;42.87;;;11.30;99.90;;;;;;4347373;28;661113;-68
2022/10/24 07:12:59;;;;;;;66.77;40.80;;;11.40;99.90;;;;;;4365533;28;660216;-69
2022/10/24 07:15:46;;;;;;;62.07;37.17;;;11.50;99.90;;;;;;4348205;28;660643;-69
2022/10/24 07:18:33;;;;;;;57.87;32.70;;;11.60;99.90;;;;;;4367225;28;662011;-69
2022/10/24 07:21:21;;;;;;;56.27;28.70;;;11.70;99.90;;;;;;4347371;28;660669;-69
2022/10/24 07:24:11;;;;;;;49.10;27.73;;;11.90;99.90;;;;;;4371862;28;661398;-69
2022/10/24 07:26:58;;;;;;;43.00;24.93;;;12.00;99.90;;;;;;4341991;28;662270;-69
2022/10/24 07:29:45;;;;;;;47.60;27.92;;;12.10;99.90;;;;;;4351258;28;661124;-69
2022/10/24 07:32:33;;;;;;;44.07;26.37;;;12.20;99.90;;;;;;4363468;28;661302;-69
2022/10/24 07:35:20;;;;;;;42.23;24.87;;;12.50;99.90;;;;;;4357701;28;661247;-69
2022/10/24 07:38:07;;;;;;;43.53;23.73;;;12.70;99.90;;;;;;4368177;28;660416;-69
2022/10/24 07:40:56;;;;;;;34.63;21.30;;;12.90;99.90;;;;;;4366824;28;660424;-69
2022/10/24 07:43:44;;;;;;;33.87;21.37;;;13.00;99.90;;;;;;4343285;28;660721;-69
2022/10/24 07:46:31;;;;;;;33.30;16.33;;;13.20;99.90;;;;;;4348807;28;660885;-69
2022/10/24 07:49:18;;;;;;;28.40;16.90;;;13.50;99.90;;;;;;4364669;28;661964;-69
2022/10/24 07:52:05;;;;;;;19.47;11.27;;;13.50;99.90;;;;;;4348693;28;661100;-68
2022/10/24 07:54:53;;;;;;;27.37;12.53;;;13.70;99.90;;;;;;4364793;28;662215;-69
2022/10/24 07:57:42;;;;;;;27.67;17.87;;;13.90;99.90;;;;;;4346083;28;660894;-69
2022/10/24 08:00:29;;;;;;;37.63;17.70;;;14.10;99.90;;;;;;4364948;28;660765;-70
2022/10/24 08:03:16;;;;;;;33.67;19.07;;;14.20;99.90;;;;;;4346738;28;661713;-69
2022/10/24 08:06:05;;;;;;;22.43;13.00;;;14.20;99.90;;;;;;4367716;28;662763;-69
2022/10/24 08:08:52;;;;;;;32.10;18.80;;;14.20;99.90;;;;;;4341987;28;661742;-69
2022/10/24 08:11:39;;;;;;;29.20;16.70;;;14.20;99.90;;;;;;4362223;28;660738;-69
2022/10/24 08:14:28;;;;;;;29.23;17.53;;;14.70;99.90;;;;;;4341718;28;660902;-69
2022/10/24 08:17:17;;;;;;;28.17;16.30;;;14.90;99.90;;;;;;4357450;28;661392;-69
2022/10/24 08:20:04;;;;;;;24.00;13.00;;;14.90;99.90;;;;;;4365360;28;661324;-69
2022/10/24 08:22:51;;;;;;;28.95;11.93;;;15.10;99.90;;;;;;4347163;28;660720;-68
2022/10/24 08:25:40;;;;;;;25.27;14.20;;;15.40;99.90;;;;;;4367500;28;661768;-69
2022/10/24 08:28:27;;;;;;;25.53;14.20;;;15.40;99.90;;;;;;4339744;28;661681;-68
2022/10/24 08:31:17;;;;;;;19.57;11.50;;;15.50;99.90;;;;;;4364154;28;660540;-68
2022/10/24 08:34:04;;;;;;;21.07;11.50;;;16.10;99.90;;;;;;4340339;28;662369;-69
2022/10/24 08:36:52;;;;;;;16.90;10.13;;;16.30;99.90;;;;;;4347483;28;661268;-69
2022/10/24 08:39:39;;;;;;;20.50;7.97;;;16.80;99.90;;;;;;4363136;28;661305;-68
2022/10/24 08:42:26;;;;;;;12.67;7.20;;;17.20;99.90;;;;;;4346741;28;661444;-69
2022/10/24 08:45:15;;;;;;;16.57;8.27;;;17.20;99.90;;;;;;4365379;28;660995;-69
2022/10/24 08:48:05;;;;;;;14.77;7.73;;;17.10;99.90;;;;;;4345005;28;661636;-69
2022/10/24 08:50:53;;;;;;;17.27;7.07;;;17.30;99.90;;;;;;4350004;28;661199;-68
2022/10/24 08:53:40;;;;;;;14.20;7.63;;;17.10;99.90;;;;;;4349565;28;659648;-68
2022/10/24 08:56:29;;;;;;;14.43;7.27;;;17.10;99.90;;;;;;4367416;28;660236;-69
2022/10/24 08:59:16;;;;;;;17.53;7.70;;;16.70;99.90;;;;;;4350715;28;660540;-69
2022/10/24 09:02:05;;;;;;;18.90;8.23;;;16.50;99.90;;;;;;4373214;28;662338;-69
2022/10/24 09:04:55;;;;;;;16.37;7.67;;;16.40;99.90;;;;;;4348180;28;660660;-69
2022/10/24 09:07:42;;;;;;;14.17;7.43;;;16.40;99.90;;;;;;4345772;28;660159;-69
2022/10/24 09:10:36;;;;;;;13.47;7.60;;;16.50;99.90;;;;;;4366463;28;659432;-69
2022/10/24 09:13:23;;;;;;;17.83;7.57;;;16.40;99.90;;;;;;4344172;28;660706;-69
2022/10/24 09:16:21;;;;;;;15.30;7.53;;;16.50;99.90;;;;;;4351583;28;659473;-69
2022/10/24 09:19:10;;;;;;;10.33;5.77;;;16.70;99.90;;;;;;4345689;28;660282;-68
2022/10/24 09:21:59;;;;;;;11.27;6.13;;;16.90;99.90;;;;;;4348330;28;661730;-69
2022/10/24 09:24:49;;;;;;;10.30;6.00;;;17.00;99.90;;;;;;4350712;28;659377;-69
2022/10/24 09:27:37;;;;;;;11.17;5.70;;;17.30;99.90;;;;;;4351213;28;660183;-69
2022/10/24 09:30:26;;;;;;;9.47;5.67;;;17.60;99.90;;;;;;4371607;28;660916;-69
2022/10/24 09:33:23;;;;;;;7.90;4.30;;;18.20;99.90;;;;;;4348145;28;659305;-69
2022/10/24 09:36:11;;;;;;;12.80;4.87;;;18.80;99.90;;;;;;4333590;28;658973;-69
2022/10/24 09:39:14;;;;;;;12.07;4.73;;;19.00;99.90;;;;;;4367964;28;661390;-69
2022/10/24 09:42:01;;;;;;;14.48;4.63;;;18.90;99.90;;;;;;4348240;28;660429;-69
2022/10/24 09:44:48;;;;;;;7.80;4.57;;;18.80;99.90;;;;;;4367488;28;660604;-68
2022/10/24 09:47:38;;;;;;;11.07;4.25;;;18.50;99.90;;;;;;4348543;28;658601;-68
2022/10/24 09:50:25;;;;;;;13.93;5.07;;;17.80;99.90;;;;;;4346049;28;660304;-69
2022/10/24 09:53:22;;;;;;;10.73;5.33;;;17.70;99.90;;;;;;4368708;28;661196;-69
2022/10/24 09:56:12;;;;;;;9.67;4.77;;;17.60;99.90;;;;;;4347372;28;659698;-68
2022/10/24 09:59:13;;;;;;;10.47;4.90;;;17.60;99.90;;;;;;4346778;28;658667;-68
2022/10/24 10:02:18;;;;;;;11.07;4.83;;;17.50;99.90;;;;;;4331538;28;659695;-69
2022/10/24 10:05:22;;;;;;;10.23;4.43;;;17.30;99.90;;;;;;4325671;28;659686;-69
2022/10/24 10:08:11;;;;;;;8.80;4.83;;;17.50;99.90;;;;;;4344502;28;660004;-69
2022/10/24 10:11:03;;;;;;;9.53;4.20;;;17.60;99.90;;;;;;4345068;28;660153;-68
2022/10/24 10:13:54;;;;;;;11.70;4.57;;;17.60;99.90;;;;;;4349907;28;659323;-68
2022/10/24 10:16:41;;;;;;;13.33;4.93;;;17.50;99.90;;;;;;4347838;28;660377;-68
2022/10/24 10:19:28;;;;;;;14.13;4.65;;;17.70;99.90;;;;;;4369084;28;660412;-68
2022/10/24 10:22:23;;;;;;;12.20;4.43;;;17.70;99.90;;;;;;4352421;28;659441;-68
2022/10/24 10:25:20;;;;;;;11.17;4.43;;;17.70;99.90;;;;;;4328642;28;659910;-69
2022/10/24 10:28:18;;;;;;;9.00;3.80;;;17.70;99.90;;;;;;4324238;28;661573;-69
2022/10/24 10:31:08;;;;;;;11.93;4.20;;;17.70;99.90;;;;;;4328325;28;660154;-69
2022/10/24 10:34:03;;;;;;;9.57;4.10;;;17.80;99.90;;;;;;4354974;28;659878;-69
2022/10/24 10:37:18;;;;;;;8.63;4.40;;;17.90;99.90;;;;;;4330003;28;658635;-69
2022/10/24 10:40:16;;;;;;;11.80;4.20;;;18.10;99.90;;;;;;4326733;28;659258;-69
2022/10/24 10:43:15;;;;;;;15.47;4.43;;;18.50;99.90;;;;;;4340333;28;660367;-69
2022/10/24 10:46:13;;;;;;;9.70;4.10;;;19.50;99.90;;;;;;4318893;28;661876;-68
2022/10/24 10:49:06;;;;;;;11.30;4.20;;;19.80;99.90;;;;;;4321432;28;659487;-69
2022/10/24 10:51:56;;;;;;;11.00;3.87;;;19.20;99.90;;;;;;4343026;28;660739;-68
2022/10/24 10:55:09;;;;;;;6.97;3.87;;;19.10;99.90;;;;;;4334503;28;659646;-69
2022/10/24 10:58:01;;;;;;;10.00;3.67;;;19.70;99.90;;;;;;4346163;28;658938;-68
2022/10/24 11:00:50;;;;;;;6.13;3.07;;;20.10;99.90;;;;;;4344575;28;661236;-68
2022/10/24 11:03:41;;;;;;;9.10;3.23;;;19.50;99.90;;;;;;4345409;28;660051;-68
2022/10/24 11:06:36;;;;;;;7.60;3.43;;;19.80;99.90;;;;;;4346344;28;659711;-69
2022/10/24 11:09:28;;;;;;;4.93;2.57;;;20.30;99.90;;;;;;4340807;28;658737;-70
2022/10/24 11:12:18;;;;;;;5.30;3.17;;;20.80;99.90;;;;;;4324497;28;661602;-69
2022/10/24 11:15:09;;;;;;;9.73;3.47;;;19.60;99.90;;;;;;4348250;28;658655;-69
2022/10/24 11:17:58;;;;;;;5.70;3.13;;;20.40;99.90;;;;;;4347815;28;658807;-69
2022/10/24 11:20:50;;;;;;;7.60;2.97;;;20.10;99.90;;;;;;4343977;28;658532;-68
2022/10/24 11:23:39;;;;;;;7.87;3.17;;;21.00;99.90;;;;;;4348276;28;659631;-69
2022/10/24 11:26:28;;;;;;;7.20;3.03;;;20.50;99.90;;;;;;4348324;28;658760;-68
2022/10/24 11:29:18;;;;;;;4.13;2.60;;;21.30;99.90;;;;;;4348144;28;659177;-69
2022/10/24 11:32:07;;;;;;;6.07;2.13;;;21.20;99.80;;;;;;4350025;28;659464;-69
2022/10/24 11:34:56;;;;;;;7.73;2.60;;;21.70;98.60;;;;;;4365005;28;660439;-68
2022/10/24 11:37:45;;;;;;;6.50;3.00;;;20.40;98.80;;;;;;4347634;28;659925;-69
2022/10/24 11:40:32;;;;;;;6.93;2.77;;;20.90;99.90;;;;;;4342512;28;659244;-69
2022/10/24 11:43:21;;;;;;;5.10;2.93;;;21.50;98.70;;;;;;4362947;28;658774;-69
2022/10/24 11:46:10;;;;;;;4.90;2.40;;;21.80;98.90;;;;;;4345186;28;660120;-68
2022/10/24 11:48:58;;;;;;;6.40;2.63;;;22.20;94.10;;;;;;4343689;28;660195;-68
2022/10/24 11:51:47;;;;;;;9.60;2.67;;;21.90;95.10;;;;;;4345111;28;658606;-68
2022/10/24 11:54:40;;;;;;;6.13;2.60;;;21.70;94.80;;;;;;4370250;28;658847;-68
2022/10/24 11:57:28;;;;;;;5.83;2.67;;;21.70;95.20;;;;;;4351529;28;658674;-68
2022/10/24 12:00:21;;;;;;;6.00;2.90;;;21.80;93.70;;;;;;4352271;28;659273;-68
2022/10/24 12:03:33;;;;;;;6.00;2.70;;;22.10;93.70;;;;;;4343871;28;659415;-70
2022/10/24 12:06:27;;;;;;;6.43;2.73;;;21.70;92.30;;;;;;4331161;28;658819;-68
2022/10/24 12:09:27;;;;;;;5.50;2.57;;;21.40;96.00;;;;;;4339660;28;658872;-69
2022/10/24 12:12:25;;;;;;;7.53;2.47;;;21.70;94.20;;;;;;4345077;28;658752;-69
2022/10/24 12:15:22;;;;;;;7.77;2.70;;;22.10;94.00;;;;;;4323603;28;659627;-68
2022/10/24 12:18:10;;;;;;;9.30;2.80;;;22.20;92.10;;;;;;4343143;28;658992;-68
2022/10/24 12:21:01;;;;;;;6.03;2.53;;;22.10;91.40;;;;;;4345616;28;659837;-68
2022/10/24 12:23:53;;;;;;;5.87;2.27;;;22.10;91.20;;;;;;4345740;28;659543;-69
2022/10/24 12:26:42;;;;;;;7.20;2.70;;;22.40;91.00;;;;;;4353025;28;658836;-68
2022/10/24 12:29:32;;;;;;;6.20;2.50;;;22.50;90.20;;;;;;4372922;28;661462;-69
2022/10/24 12:32:23;;;;;;;5.95;2.60;;;22.50;90.50;;;;;;4347591;28;659338;-68
2022/10/24 12:35:50;;;;;;;5.57;2.80;;;22.80;90.10;;;;;;4327951;28;659182;-68
2022/10/24 12:39:08;;;;;;;7.03;2.80;;;22.90;90.70;;;;;;4348162;28;659060;-69
2022/10/24 12:41:56;;;;;;;8.23;2.97;;;23.60;86.60;;;;;;4341652;28;659450;-68
2022/10/24 12:44:46;;;;;;;5.20;2.50;;;24.70;81.60;;;;;;4374830;28;658844;-69
2022/10/24 12:47:37;;;;;;;7.47;2.40;;;24.10;76.00;;;;;;4347077;28;659443;-69
2022/10/24 12:51:01;;;;;;;6.50;2.80;;;23.20;77.60;;;;;;4354809;28;659708;-68
2022/10/24 12:54:05;;;;;;;5.57;2.93;;;21.70;88.10;;;;;;4354080;28;658826;-69
2022/10/24 12:57:24;;;;;;;6.10;2.90;;;23.20;84.20;;;;;;4327625;28;659479;-69
2022/10/24 13:00:23;;;;;;;7.13;2.90;;;24.70;76.30;;;;;;4350143;28;658735;-69
2022/10/24 13:03:14;;;;;;;6.47;2.70;;;23.00;80.10;;;;;;4323538;28;659152;-68
2022/10/24 13:06:02;;;;;;;5.63;2.80;;;22.60;82.10;;;;;;4349706;28;658612;-69
2022/10/24 13:09:00;;;;;;;10.57;3.07;;;22.00;85.80;;;;;;4370078;28;659026;-69
2022/10/24 13:11:58;;;;;;;9.47;2.83;;;22.40;87.20;;;;;;4323574;28;661002;-69
2022/10/24 13:15:03;;;;;;;7.13;3.10;;;22.80;83.40;;;;;;4323199;28;659010;-69
2022/10/24 13:17:58;;;;;;;6.53;3.07;;;22.00;86.10;;;;;;4329063;28;659706;-69
2022/10/24 13:20:48;;;;;;;11.27;3.03;;;21.50;89.80;;;;;;4327757;28;658959;-69
2022/10/24 13:23:35;;;;;;;4.50;2.57;;;20.90;91.80;;;;;;4346603;28;659669;-69
2022/10/24 13:26:37;;;;;;;5.97;2.90;;;21.70;90.80;;;;;;4369912;28;659759;-68
2022/10/24 13:30:01;;;;;;;5.87;3.03;;;23.80;83.90;;;;;;4347220;28;659099;-68
2022/10/24 13:32:48;;;;;;;13.40;3.47;;;24.50;77.50;;;;;;4348747;28;659119;-69
2022/10/24 13:35:37;;;;;;;8.40;3.25;;;24.70;75.30;;;;;;4351406;28;659691;-69
2022/10/24 13:38:24;;;;;;;6.82;2.78;;;25.00;75.90;;;;;;4367950;28;659336;-69
2022/10/24 13:41:12;;;;;;;5.68;2.88;;;23.40;76.50;;;;;;4350099;28;658354;-68
2022/10/24 13:44:01;;;;;;;6.77;2.70;;;23.20;76.80;;;;;;4373213;28;658803;-68
2022/10/24 13:46:49;;;;;;;8.60;2.70;;;21.80;82.40;;;;;;4347959;28;660065;-68
2022/10/24 13:49:38;;;;;;;5.10;2.30;;;21.10;86.40;;;;;;4353712;28;658175;-68
2022/10/24 13:52:32;;;;;;;4.60;2.57;;;21.20;87.90;;;;;;4359844;28;658343;-68
2022/10/24 13:55:23;;;;;;;6.93;3.23;;;20.80;90.30;;;;;;4347889;28;659531;-68
2022/10/24 13:58:12;;;;;;;7.77;2.87;;;20.40;92.50;;;;;;4322502;28;659425;-68
2022/10/24 14:01:00;;;;;;;9.43;3.30;;;20.10;95.90;;;;;;4364301;28;658528;-68
2022/10/24 14:03:47;;;;;;;10.93;3.97;;;19.80;99.90;;;;;;4351462;28;660051;-68
2022/10/24 14:06:34;;;;;;;5.77;2.70;;;19.80;99.90;;;;;;4371558;28;659240;-68
2022/10/24 14:09:23;;;;;;;7.63;3.50;;;20.00;99.90;;;;;;4350252;28;658451;-69
2022/10/24 14:12:18;;;;;;;6.37;3.43;;;19.40;99.90;;;;;;4351137;28;658460;-68
2022/10/24 14:15:06;;;;;;;9.37;4.20;;;18.90;99.90;;;;;;4333277;28;659909;-68
2022/10/24 14:17:58;;;;;;;12.53;4.10;;;18.60;99.90;;;;;;4364684;28;659285;-68
2022/10/24 14:20:50;;;;;;;8.73;4.10;;;18.40;99.90;;;;;;4349803;28;660762;-69
2022/10/24 14:23:41;;;;;;;11.90;4.23;;;18.10;99.90;;;;;;4346739;28;659631;-68
2022/10/24 14:26:30;;;;;;;14.17;4.00;;;18.00;99.90;;;;;;4343761;28;660919;-69